LEBALEAL

Guest
Details From LEBA - Cordoba
To LEAL - Alicante
Flight Number -
Tags Generated
Created
Modified
Stats Distance 204 nm / 378 km
Max Altitude 0 ft / 0 m
Waypoints 2
Social Downloads 0
Likes 0
Share VATSIM

Download

Looking for another format? Having issues loading an existing format? Contact us
Advertisement - Login to hide

Notes

Generated

Route

LEBA LEAL

ID Type Via Altitude Latitude Longitude Leg Dist Tot Dist Heading (true) Name
O LEBA APT - 0 ft / 0 m 37.83656˚ -4.85267˚ - 0 nm - Cordoba
O LEAL APT - 0 ft / 0 m 38.28452˚ -0.57500˚ 204 nm 204 nm 81° / 84° -

Altitude Profile

Advertisement - Login to hide

Weather


0- 5 10 15 20 25 30 35+ Temperature / ° C

Clouds and Precipitation
Forecast for 2017-12-17 06:00 UTC. Updated an hour ago

Ground ~20,000 ft ~40,000 ft Winds

LEBA

Details ICAO LEBA (ODB)
Name Cordoba
Region Spain
Timezone Europe/Madrid (UTC+1.0)
Stats Elevation 296 ft / 90 m (AMSL)
Location 37.843152° -4.848064°
Runways 1
Magnetic Variation 0.991° W

METAR

LEBA 170200Z AUTO 08007KT 9999 NCD 04/01 Q1026

Decode

TAF

Not found

Departure Runways

ID Width Length Bearing (true) Bearing (mag) Surface Threshold Offset Overrun Length
03 197 ft / 60 m 7,224 ft / 2,202 m 28.69° 29.68° Asphalt 0 ft / 0 m 0 ft / 0 m
21 197 ft / 60 m 7,224 ft / 2,202 m 208.70° 209.69° Asphalt 1,939 ft / 591 m 0 ft / 0 m

LEAL

Details ICAO LEAL (ALC)
Name Alicante
Region Spain
Timezone Europe/Madrid (UTC+1.0)
Stats Elevation 141 ft / 43 m (AMSL)
Location 38.282169° -0.558157°
Runways 1
Magnetic Variation 0.184° E

METAR

LEAL 170200Z 30010KT CAVOK 08/M01 Q1024 NOSIG

Decode

TAF

TAF TAF LEAL 162300Z 1700/1724 VRB03KT 9999 FEW030 TX15/1713Z TN05/1706Z TEMPO 1700/1710 29010KT

Decode

Destination Runways

ID Width Length Bearing (true) Bearing (mag) Surface Threshold Offset Overrun Length
10 148 ft / 45 m 9,799 ft / 2,987 m 100.07° 99.89° Asphalt 0 ft / 0 m 164 ft / 50 m
28 148 ft / 45 m 9,799 ft / 2,987 m 280.09° 279.91° Asphalt 0 ft / 0 m 197 ft / 60 m

Approach Navaids

Runway Type Ident Frequency Range Bearing (true) Bearing (mag) Slope Elevation
10 Localiser IAT 110.30 MHz 18 nm / 33 km 100.09° 99.91° - 29 ft / 9 m (AMSL)
10 Glidescope IAT 110.30 MHz 10 nm / 19 km 100.09° 99.91° 3.00° 129 ft / 39 m (AMSL)
10 DME IAT 110.30 MHz 18 nm / 33 km - - - 129 ft / 39 m (AMSL)